Main page
METAR-TAF:

METAR-TAF

Airports :

Dole–Jura Airport

Dole, France

latitude: 47-02-34N, longitude: 005-26-06E, elevation: 196 m

Current weather observation

The report was made 31 minutes ago, at 19:00 UTC
Wind 10 kt from the South
Temperature 9°C
Humidity 53%
Pressure 1015 hPa
Visibility 10 km or more
Broken clouds at a height of 4500 ft
Broken clouds at a height of 6000 ft
Overcast at a height of 7400 ft

METAR: LFGJ 281900Z AUTO 19010KT 9999 BKN045 BKN060 OVC074 09/00 Q1015

Time: 20:31 (19:31 UTC)

Forecast

The report was made 5 hours and 31 minutes ago, at 14:00 UTC
Forecast valid from 28 at 15 UTC to 28 at 24 UTC
Wind 10 kt from the South/Southwest
Visibility 10 km or more
Few clouds at a height of 4000 ft
Broken clouds at a height of 6500 ft

TAF: LFGJ 281400Z 2815/2824 20010KT 9999 FEW040 BKN065

Weather observations and forecasts of more than 4000 airports (METAR and TAF reports).

The available stations are represented by yellow and red dots on the map.

Hover mouse over dot to see the name of the station.

Then click to see weather observations and forecasts.

To change the map : click on the green buttons with a black cross to zoom in, on the green button with a dash to zoom out, or on the green arrows for adjacent maps.


METAR-TAF: